Time;durP1;ratioP1;P1;durP2;ratioP2;P2;SDS_P1;SDS_P2;PMS_P1;PMS_P2;Temp;Humidity;BMP_temperature;BMP_pressure;BME280_temperature;BME280_humidity;BME280_pressure;Samples;Min_cycle;Max_cycle;Signal;HPM_P1;HPM_P2
2021/12/27 00:01:10;;;;;;;5.05;3.50;;;21.60;35.10;;;;;;5071757;28;20403;-73
2021/12/27 00:03:37;;;;;;;4.88;3.60;;;21.60;35.10;;;;;;5072331;28;20472;-72
2021/12/27 00:06:04;;;;;;;5.97;3.93;;;21.60;35.10;;;;;;5072275;28;20776;-72
2021/12/27 00:08:30;;;;;;;4.10;3.60;;;21.60;35.10;;;;;;5072165;28;20923;-73
2021/12/27 00:10:56;;;;;;;4.47;3.50;;;21.60;35.00;;;;;;5071704;28;20394;-71
2021/12/27 00:13:21;;;;;;;4.30;3.65;;;21.60;35.00;;;;;;5072090;28;20386;-69
2021/12/27 00:15:47;;;;;;;5.23;3.63;;;21.60;35.00;;;;;;5072071;28;20384;-68
2021/12/27 00:18:13;;;;;;;4.68;3.50;;;21.60;35.10;;;;;;5071750;28;20482;-68
2021/12/27 00:20:39;;;;;;;4.37;3.47;;;21.60;35.00;;;;;;5071878;28;20411;-68
2021/12/27 00:23:05;;;;;;;4.78;3.78;;;21.60;35.10;;;;;;5071440;28;20388;-67
2021/12/27 00:25:30;;;;;;;4.30;3.47;;;21.50;35.10;;;;;;5071813;28;20399;-68
2021/12/27 00:27:57;;;;;;;4.67;3.50;;;21.50;35.10;;;;;;5053952;28;20434;-70
2021/12/27 00:30:23;;;;;;;3.88;3.38;;;21.50;35.10;;;;;;5071740;28;20422;-68
2021/12/27 00:32:49;;;;;;;4.30;3.50;;;21.50;35.20;;;;;;5071478;28;20384;-69
2021/12/27 00:35:18;;;;;;;4.95;3.42;;;21.50;35.20;;;;;;5070460;28;20399;-69
2021/12/27 00:37:44;;;;;;;4.72;3.72;;;21.50;35.20;;;;;;5071691;28;20384;-68
2021/12/27 00:40:11;;;;;;;4.75;3.40;;;21.50;35.20;;;;;;5071229;28;20495;-68
2021/12/27 00:42:37;;;;;;;4.22;3.45;;;21.50;35.20;;;;;;5071513;28;20435;-68
2021/12/27 00:45:04;;;;;;;4.60;3.50;;;21.50;35.30;;;;;;5053140;28;20400;-72
2021/12/27 00:47:30;;;;;;;4.38;3.40;;;21.50;35.30;;;;;;5071705;28;20384;-71
2021/12/27 00:49:56;;;;;;;4.07;3.40;;;21.40;35.30;;;;;;5071502;28;20953;-73
2021/12/27 00:52:21;;;;;;;5.43;3.58;;;21.50;35.30;;;;;;5071694;28;20391;-72
2021/12/27 00:54:47;;;;;;;4.97;3.63;;;21.50;35.20;;;;;;5053450;28;20388;-72
2021/12/27 00:57:13;;;;;;;4.38;3.53;;;21.40;35.10;;;;;;5071152;28;20384;-72
2021/12/27 00:59:38;;;;;;;4.73;3.30;;;21.50;35.20;;;;;;5071399;28;20412;-73
2021/12/27 01:02:04;;;;;;;4.60;3.70;;;21.50;35.20;;;;;;5071233;28;20388;-70
2021/12/27 01:04:30;;;;;;;3.70;3.20;;;21.40;35.10;;;;;;5071344;28;20437;-68
2021/12/27 01:06:55;;;;;;;4.63;3.70;;;21.40;35.10;;;;;;5071203;28;20485;-68
2021/12/27 01:09:44;;;;;;;4.10;3.30;;;21.40;35.10;;;;;;5052865;28;20383;-69
2021/12/27 01:12:31;;;;;;;4.00;3.33;;;21.40;35.20;;;;;;5070606;28;20398;-69
2021/12/27 01:15:10;;;;;;;4.33;3.50;;;21.40;35.10;;;;;;5053130;28;20392;-68
2021/12/27 01:17:37;;;;;;;4.30;3.53;;;21.40;35.20;;;;;;5053469;28;20390;-74
2021/12/27 01:20:07;;;;;;;4.10;3.60;;;21.40;35.30;;;;;;5071278;28;20439;-68
2021/12/27 01:22:33;;;;;;;4.13;3.37;;;21.40;35.20;;;;;;5052937;28;20416;-72
2021/12/27 01:24:59;;;;;;;4.10;3.22;;;21.40;35.20;;;;;;5070551;28;20419;-73
2021/12/27 01:27:25;;;;;;;4.93;3.50;;;21.40;35.20;;;;;;5071145;28;20475;-72
2021/12/27 01:29:51;;;;;;;3.83;3.17;;;21.40;35.30;;;;;;5071202;28;20748;-70
2021/12/27 01:32:17;;;;;;;4.07;3.30;;;21.30;35.30;;;;;;5070960;28;20475;-72
2021/12/27 01:34:42;;;;;;;4.90;3.53;;;21.30;35.10;;;;;;5071072;28;20532;-70
2021/12/27 01:37:08;;;;;;;4.30;3.17;;;21.30;35.10;;;;;;5070721;28;20980;-71
2021/12/27 01:39:34;;;;;;;4.87;3.53;;;21.30;35.10;;;;;;5071009;28;20442;-68
2021/12/27 01:42:00;;;;;;;4.20;3.40;;;21.40;35.20;;;;;;5071204;28;20391;-69
2021/12/27 01:44:25;;;;;;;4.13;3.37;;;21.40;35.10;;;;;;5070957;28;20407;-72
2021/12/27 01:46:53;;;;;;;4.28;3.47;;;21.30;35.10;;;;;;5072082;28;20804;-71
2021/12/27 01:49:19;;;;;;;4.25;3.47;;;21.30;35.10;;;;;;5056585;28;20721;-70
2021/12/27 01:51:45;;;;;;;3.50;3.00;;;21.30;35.10;;;;;;5074933;28;20936;-71
2021/12/27 01:54:10;;;;;;;3.97;3.33;;;21.30;35.10;;;;;;5056963;28;20410;-71
2021/12/27 01:56:36;;;;;;;4.10;3.20;;;21.30;35.10;;;;;;5074834;28;20923;-73
2021/12/27 01:59:03;;;;;;;4.88;3.40;;;21.20;35.10;;;;;;5074201;28;20887;-73
2021/12/27 02:01:29;;;;;;;4.72;3.80;;;21.30;35.10;;;;;;5074690;28;20422;-69
2021/12/27 02:03:56;;;;;;;4.50;3.55;;;21.20;35.10;;;;;;5074552;28;20379;-70
2021/12/27 02:06:22;;;;;;;4.60;3.55;;;21.30;35.10;;;;;;5074540;28;20387;-70
2021/12/27 02:08:48;;;;;;;4.32;3.42;;;21.30;35.10;;;;;;5074556;28;20860;-69
2021/12/27 02:11:16;;;;;;;4.53;3.35;;;21.30;35.10;;;;;;5055900;28;20395;-68
2021/12/27 02:13:44;;;;;;;4.50;3.77;;;21.30;35.10;;;;;;5074385;28;20407;-69
2021/12/27 02:16:16;;;;;;;4.43;3.60;;;21.20;35.00;;;;;;5074210;28;20384;-68
2021/12/27 02:18:44;;;;;;;4.70;3.65;;;21.20;35.00;;;;;;5074206;28;20392;-69
2021/12/27 02:21:10;;;;;;;4.88;3.67;;;21.20;35.00;;;;;;5073396;28;20445;-73
2021/12/27 02:23:38;;;;;;;4.00;3.25;;;21.30;35.00;;;;;;5056257;28;20729;-73
2021/12/27 02:26:04;;;;;;;4.45;3.40;;;21.20;35.00;;;;;;5074298;28;20440;-73
2021/12/27 02:28:30;;;;;;;4.23;3.50;;;21.20;35.00;;;;;;5056434;28;20388;-74
2021/12/27 02:30:56;;;;;;;4.38;3.58;;;21.20;35.00;;;;;;5073948;28;20478;-73
2021/12/27 02:33:22;;;;;;;4.70;3.40;;;21.20;35.00;;;;;;5073924;28;20391;-71
2021/12/27 02:35:56;;;;;;;4.80;3.40;;;21.20;35.10;;;;;;5073953;28;20895;-71
2021/12/27 02:38:29;;;;;;;4.67;3.47;;;21.20;35.00;;;;;;5074034;28;20471;-71
2021/12/27 02:40:56;;;;;;;4.20;3.40;;;21.20;35.00;;;;;;5073912;28;20404;-73
2021/12/27 02:43:27;;;;;;;4.25;3.30;;;21.20;35.10;;;;;;5073706;28;20410;-69
2021/12/27 02:45:56;;;;;;;4.20;3.55;;;21.20;35.00;;;;;;5073935;28;20388;-73
2021/12/27 02:48:27;;;;;;;4.32;3.53;;;21.20;35.00;;;;;;5073635;28;20867;-69
2021/12/27 02:50:54;;;;;;;4.88;3.40;;;21.20;35.00;;;;;;5055093;28;20438;-71
2021/12/27 02:53:21;;;;;;;5.00;3.70;;;21.20;35.10;;;;;;5073469;28;20375;-73
2021/12/27 02:55:48;;;;;;;5.13;3.55;;;21.20;35.00;;;;;;5055808;28;20400;-68
2021/12/27 02:58:14;;;;;;;4.65;3.33;;;21.20;35.00;;;;;;5072711;28;20383;-71
2021/12/27 03:00:44;;;;;;;4.55;3.53;;;21.20;35.00;;;;;;5073486;28;20412;-69
2021/12/27 03:03:10;;;;;;;4.35;3.55;;;21.20;35.00;;;;;;5072995;28;20459;-68
2021/12/27 03:05:36;;;;;;;4.43;3.60;;;21.20;35.00;;;;;;5073209;28;20487;-68
2021/12/27 03:08:03;;;;;;;4.27;3.20;;;21.20;34.90;;;;;;5073342;28;20399;-70
2021/12/27 03:10:32;;;;;;;4.15;3.17;;;21.20;34.90;;;;;;5073379;28;20876;-68
2021/12/27 03:13:02;;;;;;;4.43;3.63;;;21.20;34.90;;;;;;5073020;28;20550;-67
2021/12/27 03:15:28;;;;;;;4.38;3.42;;;21.20;34.90;;;;;;5073040;28;20384;-68
2021/12/27 03:17:55;;;;;;;4.28;3.28;;;21.10;34.90;;;;;;5055328;28;20449;-68
2021/12/27 03:20:24;;;;;;;4.00;3.40;;;21.20;35.00;;;;;;5072929;28;20420;-68
2021/12/27 03:22:51;;;;;;;3.88;3.35;;;21.10;34.90;;;;;;5073842;28;20380;-69
2021/12/27 03:25:20;;;;;;;4.28;3.40;;;21.10;35.00;;;;;;5073486;28;20391;-67
2021/12/27 03:27:47;;;;;;;4.60;3.47;;;21.10;34.90;;;;;;5073462;28;20376;-73
2021/12/27 03:30:16;;;;;;;4.65;3.42;;;21.10;34.90;;;;;;5073471;28;20412;-73
2021/12/27 03:32:42;;;;;;;4.32;3.30;;;21.10;35.50;;;;;;5055028;28;20379;-70
2021/12/27 03:35:14;;;;;;;4.28;3.40;;;21.10;34.90;;;;;;5054442;28;20461;-68
2021/12/27 03:37:43;;;;;;;4.28;3.55;;;21.10;34.90;;;;;;5072132;28;20380;-68
2021/12/27 03:40:10;;;;;;;4.22;3.45;;;21.10;34.90;;;;;;5054699;28;20474;-68
2021/12/27 03:42:37;;;;;;;4.40;3.55;;;21.10;34.80;;;;;;5072532;28;20852;-69
2021/12/27 03:45:04;;;;;;;4.43;3.30;;;21.10;34.90;;;;;;5054211;28;20409;-70
2021/12/27 03:47:29;;;;;;;4.00;3.30;;;21.10;34.90;;;;;;5072337;28;20394;-68
2021/12/27 03:49:55;;;;;;;4.20;3.40;;;21.10;34.90;;;;;;5072588;28;20380;-67
2021/12/27 03:52:21;;;;;;;4.00;3.20;;;21.10;34.80;;;;;;5072841;28;20388;-67
2021/12/27 03:54:46;;;;;;;3.87;3.30;;;21.10;34.80;;;;;;5072620;28;20388;-75
2021/12/27 03:57:14;;;;;;;4.45;3.25;;;21.10;34.80;;;;;;5072184;28;20426;-72
2021/12/27 04:02:13;;;;;;;4.38;3.42;;;21.10;34.80;;;;;;5072341;28;20441;-69
2021/12/27 04:04:41;;;;;;;4.13;3.40;;;21.10;34.80;;;;;;5072217;28;20392;-68
2021/12/27 04:07:08;;;;;;;4.03;3.13;;;21.10;34.90;;;;;;5071617;28;20403;-68
2021/12/27 04:09:34;;;;;;;4.13;3.15;;;21.10;34.80;;;;;;5072050;28;21001;-68
2021/12/27 04:12:00;;;;;;;3.80;3.20;;;21.10;34.80;;;;;;5072552;28;20394;-68
2021/12/27 04:14:26;;;;;;;4.50;3.22;;;21.00;34.80;;;;;;5071904;28;20478;-67
2021/12/27 04:16:52;;;;;;;4.17;3.60;;;21.00;34.80;;;;;;5072068;28;20743;-68
2021/12/27 04:19:18;;;;;;;4.40;3.33;;;21.00;34.80;;;;;;5071291;28;20486;-67
2021/12/27 04:21:44;;;;;;;3.87;3.30;;;21.00;34.80;;;;;;5071978;28;20499;-68
2021/12/27 04:24:09;;;;;;;4.65;3.40;;;21.00;34.80;;;;;;5071797;28;20455;-68
2021/12/27 04:26:35;;;;;;;3.93;3.33;;;21.00;34.80;;;;;;5071782;28;20462;-67
2021/12/27 04:29:01;;;;;;;4.38;3.38;;;21.00;34.80;;;;;;5071606;28;20397;-67
2021/12/27 04:31:26;;;;;;;4.07;3.13;;;21.00;34.80;;;;;;5071562;28;20478;-68
2021/12/27 04:33:52;;;;;;;3.83;3.03;;;21.00;34.80;;;;;;5071761;28;20878;-68
2021/12/27 04:36:18;;;;;;;4.63;3.47;;;21.00;34.70;;;;;;5071352;28;20413;-68
2021/12/27 04:38:44;;;;;;;4.10;3.17;;;21.00;34.70;;;;;;5071470;28;20391;-68
2021/12/27 04:41:13;;;;;;;4.05;3.50;;;21.00;34.70;;;;;;5071134;28;20431;-68
2021/12/27 04:43:39;;;;;;;4.13;3.47;;;21.00;34.70;;;;;;5053548;28;20410;-68
2021/12/27 04:46:05;;;;;;;4.60;3.40;;;21.00;34.60;;;;;;5071570;28;20400;-67
2021/12/27 04:48:31;;;;;;;3.80;3.30;;;21.00;34.70;;;;;;5071621;28;20368;-69
2021/12/27 04:50:57;;;;;;;3.88;3.20;;;21.00;34.70;;;;;;5071533;28;20880;-67
2021/12/27 04:53:23;;;;;;;3.97;3.30;;;21.00;34.70;;;;;;5070497;28;20422;-67
2021/12/27 04:55:50;;;;;;;4.03;3.30;;;21.00;34.70;;;;;;5071100;28;20855;-67
2021/12/27 04:58:17;;;;;;;4.20;3.42;;;21.00;34.70;;;;;;5053441;28;20391;-68
2021/12/27 05:00:44;;;;;;;4.72;3.28;;;21.00;34.80;;;;;;5071160;28;20454;-68
2021/12/27 05:03:10;;;;;;;4.43;3.53;;;21.00;34.70;;;;;;5070715;28;20456;-68
2021/12/27 05:05:37;;;;;;;4.60;3.20;;;21.00;34.70;;;;;;5071370;28;20935;-68
2021/12/27 05:08:04;;;;;;;4.60;3.50;;;21.00;34.70;;;;;;5071223;28;20470;-67
2021/12/27 05:10:30;;;;;;;5.95;3.58;;;21.00;34.80;;;;;;5071358;28;20384;-67
2021/12/27 05:12:57;;;;;;;6.53;3.65;;;21.10;35.00;;;;;;5071279;28;20383;-67
2021/12/27 05:15:23;;;;;;;5.90;4.05;;;21.20;35.10;;;;;;5071200;28;20525;-69
2021/12/27 05:17:49;;;;;;;6.20;4.17;;;21.20;35.30;;;;;;5071373;28;20445;-70
2021/12/27 05:20:14;;;;;;;5.70;4.20;;;21.30;36.30;;;;;;5070996;28;20415;-70
2021/12/27 05:22:40;;;;;;;6.77;4.27;;;21.40;37.00;;;;;;5074205;28;20798;-69
2021/12/27 05:25:10;;;;;;;6.63;4.32;;;21.40;36.90;;;;;;5074860;28;20759;-70
2021/12/27 05:27:38;;;;;;;8.73;3.87;;;21.40;36.70;;;;;;5075369;28;20395;-69
2021/12/27 05:30:05;;;;;;;6.50;3.90;;;21.50;36.90;;;;;;5075142;28;20388;-70
2021/12/27 05:32:30;;;;;;;6.00;4.40;;;21.50;37.00;;;;;;5057136;28;20445;-69
2021/12/27 05:34:56;;;;;;;6.32;3.80;;;21.50;36.90;;;;;;5074935;28;20387;-71
2021/12/27 05:37:22;;;;;;;6.43;4.00;;;21.50;36.80;;;;;;5074560;28;20804;-70
2021/12/27 05:39:48;;;;;;;6.25;3.55;;;21.60;37.00;;;;;;5075259;28;20418;-69
2021/12/27 05:42:14;;;;;;;7.75;3.88;;;21.60;36.70;;;;;;5074581;28;20416;-69
2021/12/27 05:44:40;;;;;;;6.55;3.75;;;21.60;36.80;;;;;;5074606;28;20410;-70
2021/12/27 05:47:06;;;;;;;10.07;4.10;;;21.60;37.00;;;;;;5074557;28;20384;-70
2021/12/27 05:49:32;;;;;;;5.50;4.20;;;21.60;37.10;;;;;;5074492;28;20775;-70
2021/12/27 05:51:58;;;;;;;5.80;4.00;;;21.60;37.10;;;;;;5074736;28;20383;-69
2021/12/27 05:54:23;;;;;;;6.22;3.60;;;21.70;37.80;;;;;;5074395;28;20486;-71
2021/12/27 05:56:50;;;;;;;6.47;4.00;;;21.70;36.80;;;;;;5074472;28;20380;-70
2021/12/27 05:59:16;;;;;;;7.50;3.92;;;21.70;37.20;;;;;;5055849;28;20411;-70
2021/12/27 06:01:43;;;;;;;7.47;4.00;;;21.70;37.20;;;;;;5074503;28;20395;-70
2021/12/27 06:04:08;;;;;;;7.03;3.85;;;21.70;37.10;;;;;;5074320;28;20486;-70
2021/12/27 06:06:36;;;;;;;6.47;3.92;;;21.70;36.90;;;;;;5056471;28;20467;-69
2021/12/27 06:09:03;;;;;;;6.22;4.00;;;21.80;37.00;;;;;;5074326;28;21009;-70
2021/12/27 06:11:28;;;;;;;6.75;4.20;;;21.80;37.00;;;;;;5074083;28;20414;-69
2021/12/27 06:13:54;;;;;;;5.37;3.73;;;21.80;36.70;;;;;;5056405;28;20715;-69
2021/12/27 06:16:20;;;;;;;4.73;4.03;;;21.80;36.70;;;;;;5073884;28;20419;-67
2021/12/27 06:18:46;;;;;;;9.60;4.10;;;21.70;36.60;;;;;;5074159;28;20865;-67
2021/12/27 06:21:12;;;;;;;7.30;4.60;;;21.70;36.00;;;;;;5073698;28;20423;-66
2021/12/27 06:23:38;;;;;;;6.82;4.00;;;21.60;36.10;;;;;;5073977;28;20740;-67
2021/12/27 06:26:04;;;;;;;6.70;3.90;;;21.50;35.90;;;;;;5073955;28;20392;-66
2021/12/27 06:28:31;;;;;;;5.60;3.80;;;21.50;35.80;;;;;;5074001;28;20433;-66
2021/12/27 06:30:58;;;;;;;5.88;4.35;;;21.50;35.70;;;;;;5073887;28;20490;-68
2021/12/27 06:33:24;;;;;;;6.30;4.50;;;21.40;36.10;;;;;;5071980;28;20910;-67
2021/12/27 06:35:49;;;;;;;6.30;4.07;;;21.50;36.60;;;;;;5073647;28;20392;-66
2021/12/27 06:38:15;;;;;;;5.80;4.57;;;21.50;36.10;;;;;;5073867;28;20384;-68
2021/12/27 06:40:41;;;;;;;7.07;4.63;;;21.50;36.00;;;;;;5073996;28;20518;-68
2021/12/27 06:43:06;;;;;;;6.17;4.40;;;21.50;36.00;;;;;;5073330;28;20404;-68
2021/12/27 06:45:32;;;;;;;7.78;4.80;;;21.50;36.00;;;;;;5072460;28;20399;-68
2021/12/27 06:47:58;;;;;;;9.23;5.00;;;21.50;36.10;;;;;;5061477;28;20432;-68
2021/12/27 06:50:23;;;;;;;6.32;4.40;;;21.50;36.00;;;;;;5062540;28;20427;-68
2021/12/27 06:52:49;;;;;;;7.30;4.97;;;21.50;36.00;;;;;;5045180;28;20460;-69
2021/12/27 06:55:15;;;;;;;16.90;5.03;;;21.50;35.90;;;;;;5072696;28;20391;-68
2021/12/27 06:57:41;;;;;;;7.35;4.65;;;21.50;35.60;;;;;;5073579;28;20416;-70
2021/12/27 07:00:11;;;;;;;8.82;4.90;;;21.50;35.70;;;;;;5073471;28;20415;-67
2021/12/27 07:02:37;;;;;;;6.90;4.80;;;21.40;35.40;;;;;;5055437;28;20402;-68
2021/12/27 07:05:04;;;;;;;8.73;4.80;;;21.40;35.50;;;;;;5073225;28;20440;-68
2021/12/27 07:07:30;;;;;;;7.60;4.80;;;21.40;35.40;;;;;;5055062;28;20392;-67
2021/12/27 07:09:55;;;;;;;8.33;5.13;;;21.30;35.50;;;;;;5067062;28;20754;-68
2021/12/27 07:12:22;;;;;;;10.30;4.68;;;21.30;35.50;;;;;;5054834;28;20380;-68
2021/12/27 07:14:48;;;;;;;10.68;4.82;;;21.30;35.50;;;;;;5071611;28;20392;-67
2021/12/27 07:17:15;;;;;;;8.48;5.05;;;21.40;35.40;;;;;;5072695;28;20411;-68
2021/12/27 07:19:41;;;;;;;9.48;5.50;;;21.40;35.40;;;;;;5072343;28;20779;-68
2021/12/27 07:22:07;;;;;;;7.43;5.10;;;21.30;35.10;;;;;;5072666;28;20455;-67
2021/12/27 07:24:33;;;;;;;9.85;4.90;;;21.30;35.40;;;;;;5072864;28;20415;-70
2021/12/27 07:26:59;;;;;;;8.88;4.88;;;21.20;35.80;;;;;;5072536;28;20380;-71
2021/12/27 07:29:25;;;;;;;9.10;5.15;;;21.30;35.10;;;;;;5058500;28;20393;-73
2021/12/27 07:31:51;;;;;;;8.63;4.93;;;21.30;35.20;;;;;;5054413;28;20422;-75
2021/12/27 07:34:19;;;;;;;8.35;5.00;;;21.20;35.00;;;;;;5072063;28;20400;-73
2021/12/27 07:36:47;;;;;;;10.05;5.07;;;21.20;35.10;;;;;;5072417;28;20395;-75
2021/12/27 07:39:13;;;;;;;8.98;4.80;;;21.20;35.10;;;;;;5052229;28;20408;-71
2021/12/27 07:41:40;;;;;;;9.90;4.75;;;21.20;35.00;;;;;;5072071;28;20400;-71
2021/12/27 07:44:07;;;;;;;7.72;4.70;;;21.10;35.10;;;;;;5072060;28;20507;-71
2021/12/27 07:46:35;;;;;;;7.53;4.55;;;21.20;35.30;;;;;;5072540;28;20384;-72
2021/12/27 07:49:02;;;;;;;8.37;4.40;;;21.20;35.30;;;;;;5054556;28;20423;-71
2021/12/27 07:51:27;;;;;;;8.95;4.57;;;21.30;35.20;;;;;;5054094;28;20392;-72
2021/12/27 07:53:53;;;;;;;8.93;4.93;;;21.30;35.30;;;;;;5054569;28;20422;-70
2021/12/27 07:56:19;;;;;;;8.10;4.65;;;21.30;35.30;;;;;;5051178;28;20396;-70
2021/12/27 07:58:44;;;;;;;7.70;4.30;;;21.40;35.20;;;;;;5077127;28;20386;-69
2021/12/27 08:01:10;;;;;;;9.55;4.65;;;21.40;35.20;;;;;;5059302;28;20401;-70
2021/12/27 08:03:36;;;;;;;7.73;4.27;;;21.40;35.10;;;;;;5072822;28;20898;-69
2021/12/27 08:06:01;;;;;;;6.90;4.40;;;21.40;35.00;;;;;;5092366;28;20921;-69
2021/12/27 08:08:27;;;;;;;5.57;4.10;;;21.30;34.90;;;;;;5092495;28;20386;-69
2021/12/27 08:10:53;;;;;;;7.25;4.28;;;21.30;34.90;;;;;;5073875;28;20394;-69
2021/12/27 08:13:18;;;;;;;6.40;4.40;;;21.30;34.80;;;;;;5092036;28;20468;-69
2021/12/27 08:15:44;;;;;;;7.88;4.03;;;21.40;34.90;;;;;;5073917;28;20886;-69
2021/12/27 08:18:09;;;;;;;7.20;4.17;;;21.50;35.00;;;;;;5092188;28;20416;-71
2021/12/27 08:20:35;;;;;;;6.40;4.05;;;21.40;34.90;;;;;;5092271;28;20453;-71
2021/12/27 08:23:01;;;;;;;7.75;3.83;;;21.40;34.80;;;;;;5092934;28;20392;-73
2021/12/27 08:25:27;;;;;;;5.68;4.07;;;21.40;34.70;;;;;;5074333;28;20394;-67
2021/12/27 08:27:52;;;;;;;10.73;3.83;;;21.40;35.00;;;;;;5091932;28;20386;-69
2021/12/27 08:30:18;;;;;;;7.53;4.03;;;21.40;36.30;;;;;;5091879;28;20473;-68
2021/12/27 08:32:46;;;;;;;7.60;3.70;;;21.40;36.60;;;;;;5092330;28;20446;-70
2021/12/27 08:35:12;;;;;;;8.25;4.40;;;21.50;36.40;;;;;;5091906;28;20397;-76
2021/12/27 08:37:39;;;;;;;8.43;3.83;;;21.60;36.80;;;;;;5091448;28;20389;-75
2021/12/27 08:40:08;;;;;;;8.40;3.67;;;21.60;37.20;;;;;;5091923;28;20413;-70
2021/12/27 08:42:33;;;;;;;9.30;4.00;;;21.70;37.40;;;;;;5090508;28;20410;-75
2021/12/27 08:45:00;;;;;;;8.13;3.80;;;21.80;37.80;;;;;;5073809;28;20852;-69
2021/12/27 08:47:26;;;;;;;9.27;3.85;;;21.80;37.70;;;;;;5091200;28;20373;-69
2021/12/27 08:49:51;;;;;;;6.50;3.60;;;21.80;37.80;;;;;;5073789;28;20758;-68
2021/12/27 08:52:17;;;;;;;7.97;3.33;;;21.80;37.80;;;;;;5091771;28;20381;-68
2021/12/27 08:54:43;;;;;;;6.73;3.27;;;21.90;37.90;;;;;;5091672;28;20490;-69
2021/12/27 08:57:09;;;;;;;7.63;3.30;;;21.90;38.00;;;;;;5079335;28;20438;-69
2021/12/27 08:59:38;;;;;;;6.10;3.40;;;21.90;38.00;;;;;;5070694;28;20411;-69
2021/12/27 09:02:05;;;;;;;5.32;2.90;;;22.00;37.90;;;;;;5071328;28;20391;-69
2021/12/27 09:04:32;;;;;;;5.00;3.00;;;22.00;37.90;;;;;;5071292;28;20372;-68
2021/12/27 09:06:58;;;;;;;6.07;3.15;;;22.00;37.80;;;;;;5071318;28;20818;-70
2021/12/27 09:09:24;;;;;;;6.72;3.03;;;22.00;37.80;;;;;;5069621;28;20392;-69
2021/12/27 09:11:50;;;;;;;6.20;2.90;;;22.10;37.80;;;;;;5070651;28;20410;-68
2021/12/27 09:14:15;;;;;;;5.88;2.70;;;22.10;37.90;;;;;;5069980;28;20427;-68
2021/12/27 09:16:43;;;;;;;5.30;2.80;;;22.10;37.50;;;;;;5067645;28;20743;-69
2021/12/27 09:19:10;;;;;;;6.03;2.90;;;22.10;37.50;;;;;;5069450;28;20537;-69
2021/12/27 09:21:37;;;;;;;6.60;3.03;;;22.10;37.50;;;;;;5044524;28;20899;-74
2021/12/27 09:24:04;;;;;;;4.82;2.70;;;22.10;37.60;;;;;;5065841;28;20468;-69
2021/12/27 09:26:30;;;;;;;6.72;2.60;;;22.10;37.40;;;;;;5068073;28;20396;-68
2021/12/27 09:28:57;;;;;;;4.22;2.47;;;22.00;37.30;;;;;;5050511;28;20448;-69
2021/12/27 09:31:24;;;;;;;5.50;2.60;;;22.10;36.90;;;;;;5048427;28;20395;-69
2021/12/27 09:33:50;;;;;;;4.25;2.38;;;22.00;36.80;;;;;;5047816;28;20388;-72
2021/12/27 09:36:16;;;;;;;3.97;2.10;;;22.00;36.70;;;;;;5062708;28;20395;-68
2021/12/27 09:38:41;;;;;;;4.80;2.40;;;22.00;36.60;;;;;;5052386;28;20384;-68
2021/12/27 09:41:07;;;;;;;4.00;2.10;;;22.00;36.50;;;;;;5051808;28;20412;-68
2021/12/27 09:43:35;;;;;;;5.47;2.20;;;22.00;36.40;;;;;;5051380;28;20458;-68
2021/12/27 09:46:02;;;;;;;4.10;2.25;;;22.00;36.00;;;;;;5070024;28;20423;-67
2021/12/27 09:48:28;;;;;;;3.60;2.00;;;22.00;35.70;;;;;;5052339;28;20392;-67
2021/12/27 09:50:57;;;;;;;3.67;2.20;;;21.90;35.60;;;;;;5069204;28;20402;-67
2021/12/27 09:53:24;;;;;;;4.15;1.90;;;21.90;35.50;;;;;;5070651;28;20419;-67
2021/12/27 09:55:51;;;;;;;5.70;2.30;;;21.80;35.60;;;;;;5053387;28;20411;-66
2021/12/27 09:58:17;;;;;;;3.00;2.00;;;21.80;35.60;;;;;;5053198;28;20398;-66
2021/12/27 10:00:42;;;;;;;3.17;1.97;;;21.80;35.60;;;;;;5070962;28;20516;-66
2021/12/27 10:03:09;;;;;;;3.03;1.90;;;21.70;35.60;;;;;;5069742;28;20463;-67
2021/12/27 10:05:35;;;;;;;7.45;2.00;;;21.70;35.90;;;;;;5051427;28;20796;-71
2021/12/27 10:08:02;;;;;;;6.18;2.00;;;21.70;36.10;;;;;;5071648;28;20863;-67
2021/12/27 10:10:32;;;;;;;7.72;2.20;;;21.70;36.70;;;;;;5054762;28;20400;-67
2021/12/27 10:12:58;;;;;;;9.02;2.17;;;21.80;36.50;;;;;;5073067;28;20387;-67
2021/12/27 10:15:36;;;;;;;7.47;2.45;;;21.90;36.80;;;;;;5073179;28;20391;-67
2021/12/27 10:18:12;;;;;;;6.43;2.45;;;21.90;38.30;;;;;;5073120;28;20736;-69
2021/12/27 10:20:38;;;;;;;8.20;2.30;;;21.90;38.20;;;;;;5055908;28;20485;-66
2021/12/27 10:23:04;;;;;;;5.37;2.10;;;22.00;38.20;;;;;;5071295;28;20871;-66
2021/12/27 10:25:30;;;;;;;4.72;2.10;;;22.00;38.20;;;;;;5051923;28;20453;-67
2021/12/27 10:27:59;;;;;;;6.05;2.10;;;22.10;38.10;;;;;;5059644;28;20387;-67
2021/12/27 10:30:28;;;;;;;3.17;1.77;;;22.10;38.00;;;;;;5072372;28;20390;-66
2021/12/27 10:33:14;;;;;;;5.20;1.98;;;22.10;38.10;;;;;;5072133;28;20751;-68
2021/12/27 10:35:55;;;;;;;4.40;1.73;;;22.20;38.30;;;;;;5070820;28;20424;-67
2021/12/27 10:38:31;;;;;;;3.10;1.80;;;22.20;38.40;;;;;;5072174;28;20394;-67
2021/12/27 10:41:05;;;;;;;3.25;1.70;;;22.20;38.50;;;;;;5070217;28;20419;-67
2021/12/27 10:43:38;;;;;;;5.55;1.95;;;22.20;38.60;;;;;;5068696;28;20472;-68
2021/12/27 10:46:06;;;;;;;4.25;1.58;;;22.20;38.70;;;;;;5072882;28;20435;-68
2021/12/27 10:48:47;;;;;;;3.90;1.55;;;22.30;38.50;;;;;;5068665;28;20386;-67
2021/12/27 10:51:13;;;;;;;3.05;1.60;;;22.30;38.50;;;;;;5068776;28;20411;-70
2021/12/27 10:53:59;;;;;;;3.10;1.50;;;22.40;38.40;;;;;;5058270;28;20433;-73
2021/12/27 10:56:27;;;;;;;3.75;1.52;;;22.40;38.30;;;;;;5054699;28;20411;-75
2021/12/27 10:58:55;;;;;;;3.05;1.45;;;22.50;38.20;;;;;;5041236;28;20389;-74
2021/12/27 11:01:23;;;;;;;4.05;1.52;;;22.50;38.00;;;;;;5051051;28;20737;-67
2021/12/27 11:03:51;;;;;;;3.78;1.58;;;22.60;37.90;;;;;;5072550;28;20392;-72
2021/12/27 11:06:23;;;;;;;4.72;1.67;;;22.60;37.70;;;;;;5055020;28;20729;-67
2021/12/27 11:08:51;;;;;;;3.75;1.42;;;22.70;37.70;;;;;;5040631;28;21226;-69
2021/12/27 11:11:18;;;;;;;5.10;1.50;;;22.70;37.20;;;;;;5061484;28;20402;-67
2021/12/27 11:13:48;;;;;;;6.00;1.63;;;22.80;37.30;;;;;;5063201;28;20386;-74
2021/12/27 11:16:14;;;;;;;4.60;1.60;;;22.80;37.00;;;;;;5072381;28;20477;-71
2021/12/27 11:18:40;;;;;;;3.33;1.40;;;22.80;36.80;;;;;;5054255;28;20392;-68
2021/12/27 11:21:21;;;;;;;4.95;1.50;;;22.80;36.80;;;;;;5073076;28;20424;-73
2021/12/27 11:23:50;;;;;;;5.00;1.50;;;22.90;36.80;;;;;;5055131;28;20384;-68
2021/12/27 11:26:22;;;;;;;5.38;1.40;;;23.00;36.80;;;;;;5073511;28;20392;-67
2021/12/27 11:28:49;;;;;;;5.72;1.50;;;23.00;36.60;;;;;;5054463;28;20823;-74
2021/12/27 11:31:23;;;;;;;4.00;1.40;;;23.10;36.50;;;;;;5072164;28;20397;-67
2021/12/27 11:33:53;;;;;;;3.78;1.52;;;23.10;36.30;;;;;;5054185;28;20407;-68
2021/12/27 11:36:20;;;;;;;3.08;1.27;;;23.20;36.30;;;;;;5072168;28;20398;-69
2021/12/27 11:38:47;;;;;;;3.73;1.10;;;23.20;36.20;;;;;;5072181;28;20384;-75
2021/12/27 11:41:33;;;;;;;2.73;1.20;;;23.30;36.10;;;;;;5072293;28;20427;-75
2021/12/27 11:44:08;;;;;;;3.28;1.10;;;23.30;36.00;;;;;;5053852;28;20407;-69
2021/12/27 11:46:50;;;;;;;2.20;1.20;;;23.40;35.90;;;;;;5054267;28;20403;-74
2021/12/27 11:49:30;;;;;;;2.80;1.10;;;23.40;35.70;;;;;;5075268;28;20395;-72
2021/12/27 11:52:16;;;;;;;1.83;1.20;;;23.50;35.60;;;;;;5053984;28;20431;-76
2021/12/27 11:55:01;;;;;;;2.40;1.40;;;23.50;35.50;;;;;;5054026;28;20388;-75
2021/12/27 11:57:41;;;;;;;3.15;1.20;;;23.60;35.50;;;;;;5071857;28;20391;-73
2021/12/27 12:00:27;;;;;;;2.08;1.00;;;23.60;35.40;;;;;;5071962;28;20908;-74
2021/12/27 12:03:00;;;;;;;2.10;1.00;;;23.60;35.40;;;;;;5059361;28;20416;-74
2021/12/27 12:05:49;;;;;;;3.35;1.10;;;23.70;35.30;;;;;;5070048;28;20808;-73
2021/12/27 12:08:16;;;;;;;2.00;1.00;;;23.70;35.10;;;;;;5042036;28;20405;-69
2021/12/27 12:10:52;;;;;;;3.03;1.02;;;23.80;35.20;;;;;;5052215;28;20381;-67
2021/12/27 12:13:22;;;;;;;3.80;1.00;;;23.80;35.30;;;;;;5051785;28;20477;-68
2021/12/27 12:16:01;;;;;;;3.70;1.10;;;23.80;35.00;;;;;;5079182;28;20374;-67
2021/12/27 12:18:28;;;;;;;4.47;1.40;;;23.80;35.20;;;;;;5073573;28;21035;-67
2021/12/27 12:20:54;;;;;;;3.97;1.02;;;23.90;35.40;;;;;;5092226;28;20512;-69
2021/12/27 12:23:20;;;;;;;6.95;1.40;;;23.90;35.60;;;;;;5092368;28;20370;-70
2021/12/27 12:25:46;;;;;;;7.53;1.40;;;24.00;35.80;;;;;;5073367;28;20788;-69
2021/12/27 12:28:17;;;;;;;8.90;1.10;;;24.00;35.50;;;;;;5092107;28;20382;-74
2021/12/27 12:30:48;;;;;;;5.28;1.15;;;24.10;35.20;;;;;;5092001;28;20460;-71
2021/12/27 12:33:19;;;;;;;5.78;1.00;;;24.20;35.00;;;;;;5073778;28;20758;-68
2021/12/27 12:35:47;;;;;;;3.83;1.00;;;24.20;35.10;;;;;;5091844;28;20413;-68
2021/12/27 12:38:21;;;;;;;3.35;1.00;;;24.30;35.10;;;;;;5073673;28;20912;-68
2021/12/27 12:41:12;;;;;;;3.28;1.10;;;24.30;34.70;;;;;;5073517;28;20782;-69
2021/12/27 12:43:51;;;;;;;3.88;1.02;;;24.40;34.90;;;;;;5091291;28;20455;-68
2021/12/27 12:46:23;;;;;;;3.47;0.88;;;24.40;34.80;;;;;;5091460;28;20442;-68
2021/12/27 12:49:28;;;;;;;2.67;1.00;;;24.40;34.70;;;;;;5073075;28;20447;-68
2021/12/27 12:51:59;;;;;;;6.05;1.10;;;24.50;34.50;;;;;;4991369;28;20397;-68